createdAt,value
2023-05-19T00:01:16.085Z,90818.53
2023-05-19T00:04:01.167Z,90818.22
2023-05-19T00:06:46.044Z,90816.19
2023-05-19T00:09:31.096Z,90807.88
2023-05-19T00:12:16.002Z,90800.66
2023-05-19T00:15:00.983Z,90815.69
2023-05-19T00:17:45.919Z,90802.66
2023-05-19T00:20:30.924Z,90810.69
2023-05-19T00:23:15.679Z,90802.53
2023-05-19T00:26:00.563Z,90805.06
2023-05-19T00:28:45.528Z,90802.25
2023-05-19T00:31:30.341Z,90792.84
2023-05-19T00:34:15.347Z,90794.34
2023-05-19T00:37:02.306Z,90795.31
2023-05-19T00:39:47.274Z,90795.69
2023-05-19T00:42:32.364Z,90791.44
2023-05-19T00:45:17.261Z,90786.69
2023-05-19T00:48:02.454Z,90794.53
2023-05-19T00:50:47.355Z,90793.63
2023-05-19T00:53:32.388Z,90796.69
2023-05-19T00:56:17.515Z,90794.47
2023-05-19T00:59:02.377Z,90799.75
2023-05-19T01:01:47.461Z,90799.75
2023-05-19T01:04:32.504Z,90794.25
2023-05-19T01:07:17.662Z,90796.69
2023-05-19T01:10:02.604Z,90798.19
2023-05-19T01:12:47.699Z,90799.88
2023-05-19T01:15:32.623Z,90804.09
2023-05-19T01:18:17.529Z,90803.88
2023-05-19T01:21:02.545Z,90795.84
2023-05-19T01:23:47.558Z,90797.44
2023-05-19T01:26:32.464Z,90799.66
2023-05-19T01:29:17.339Z,90794.91
2023-05-19T01:32:02.454Z,90797.44
2023-05-19T01:34:47.300Z,90802.72
2023-05-19T01:37:32.039Z,90796.25
2023-05-19T01:40:16.957Z,90798.53
2023-05-19T01:43:02.098Z,90798.78
2023-05-19T01:45:47.052Z,90791.25
2023-05-19T01:48:31.941Z,90789.03
2023-05-19T01:51:17.037Z,90790.09
2023-05-19T01:54:02.154Z,90787.13
2023-05-19T01:56:47.172Z,90785.63
2023-05-19T01:59:32.054Z,90776.66
2023-05-19T02:02:17.003Z,90772.63
2023-05-19T02:05:01.981Z,90775.81
2023-05-19T02:07:47.065Z,90782.78
2023-05-19T02:10:32.222Z,90781.22
2023-05-19T02:13:17.488Z,90776.03
2023-05-19T02:16:02.443Z,90772.84
2023-05-19T02:18:47.408Z,90780.38
2023-05-19T02:21:32.383Z,90771.06
2023-05-19T02:24:17.271Z,90778.66
2023-05-19T02:27:02.236Z,90773.91
2023-05-19T02:29:47.361Z,90766.91
2023-05-19T02:32:32.247Z,90769.13
2023-05-19T02:35:17.184Z,90765.88
2023-05-19T02:38:01.959Z,90755.91
2023-05-19T02:40:46.860Z,90755.97
2023-05-19T02:43:31.812Z,90753.78
2023-05-19T02:46:16.910Z,90756.31
2023-05-19T02:49:01.728Z,90751.78
2023-05-19T02:51:46.712Z,90755.84
2023-05-19T02:54:31.703Z,90754.06
2023-05-19T02:57:16.632Z,90754.59
2023-05-19T03:00:01.764Z,90758.38
2023-05-19T03:02:46.782Z,90755.63
2023-05-19T03:05:31.603Z,90753.84
2023-05-19T03:08:16.656Z,90745.91
2023-05-19T03:11:01.249Z,90748.81
2023-05-19T03:13:46.127Z,90748.34
2023-05-19T03:16:31.023Z,90756.16
2023-05-19T03:19:15.949Z,90745.03
2023-05-19T03:22:00.886Z,90737.50
2023-05-19T03:24:45.909Z,90744.56
2023-05-19T03:27:30.955Z,90734.13
2023-05-19T03:30:15.937Z,90743.84
2023-05-19T03:33:00.857Z,90745.03
2023-05-19T03:35:45.815Z,90741.75
2023-05-19T03:38:30.600Z,90744.28
2023-05-19T03:41:15.517Z,90737.75
2023-05-19T03:44:00.319Z,90737.28
2023-05-19T03:46:45.333Z,90747.13
2023-05-19T03:49:30.207Z,90746.38
2023-05-19T03:52:15.249Z,90750.81
2023-05-19T03:55:00.341Z,90740.78
2023-05-19T03:57:45.285Z,90746.59
2023-05-19T04:00:30.518Z,90749.34
2023-05-19T04:03:15.802Z,90752.63
2023-05-19T04:06:00.715Z,90747.94
2023-05-19T04:08:45.557Z,90754.38
2023-05-19T04:11:30.389Z,90755.38
2023-05-19T04:14:15.366Z,90752.09
2023-05-19T04:17:00.339Z,90752.91
2023-05-19T04:19:45.277Z,90758.63
2023-05-19T04:22:30.072Z,90759.66
2023-05-19T04:25:14.883Z,90760.13
2023-05-19T04:27:59.872Z,90755.38
2023-05-19T04:30:44.995Z,90758.84
2023-05-19T04:33:30.069Z,90756.84
2023-05-19T04:36:14.981Z,90762.34
2023-05-19T04:38:59.961Z,90760.34
2023-05-19T04:41:44.952Z,90758.75
2023-05-19T04:44:30.056Z,90761.00
2023-05-19T04:47:14.870Z,90761.28
2023-05-19T04:50:00.033Z,90761.28
2023-05-19T04:52:45.018Z,90761.81
2023-05-19T04:55:30.479Z,90767.97
2023-05-19T04:58:15.515Z,90763.50
2023-05-19T05:01:00.331Z,90768.50
2023-05-19T05:03:45.322Z,90763.22
2023-05-19T05:06:30.258Z,90770.63
2023-05-19T05:09:15.139Z,90766.09
2023-05-19T05:11:59.981Z,90769.59
2023-05-19T05:14:44.963Z,90770.78
2023-05-19T05:17:29.926Z,90768.34
2023-05-19T05:20:14.969Z,90771.81
2023-05-19T05:23:00.133Z,90768.56
2023-05-19T05:25:45.058Z,90766.03
2023-05-19T05:28:30.252Z,90769.53
2023-05-19T05:31:15.234Z,90763.72
2023-05-19T05:34:00.195Z,90770.69
2023-05-19T05:36:45.096Z,90765.66
2023-05-19T05:39:30.152Z,90754.88
2023-05-19T05:42:15.230Z,90763.03
2023-05-19T05:45:00.174Z,90771.78
2023-05-19T05:47:45.186Z,90760.78
2023-05-19T05:50:30.103Z,90765.78
2023-05-19T05:53:15.157Z,90765.78
2023-05-19T05:56:00.211Z,90761.53
2023-05-19T05:58:45.193Z,90762.50
2023-05-19T06:01:30.099Z,90759.47
2023-05-19T06:04:15.068Z,90757.13
2023-05-19T06:07:00.243Z,90760.84
2023-05-19T06:09:45.160Z,90761.38
2023-05-19T06:12:30.254Z,90758.53
2023-05-19T06:15:15.197Z,90753.56
2023-05-19T06:17:59.988Z,90763.53
2023-05-19T06:20:44.819Z,90756.81
2023-05-19T06:23:29.789Z,90759.81
2023-05-19T06:26:14.711Z,90754.75
2023-05-19T06:28:59.769Z,90755.84
2023-05-19T06:31:44.793Z,90757.44
2023-05-19T06:34:29.705Z,90755.31
2023-05-19T06:37:14.737Z,90761.38
2023-05-19T06:39:59.553Z,90760.16
2023-05-19T06:42:44.476Z,90764.16
2023-05-19T06:45:29.572Z,90758.06
2023-05-19T06:48:14.562Z,90752.75
2023-05-19T06:50:59.556Z,90753.94
2023-05-19T06:53:44.595Z,90761.25
2023-05-19T06:56:29.583Z,90763.00
2023-05-19T06:59:14.322Z,90763.28
2023-05-19T07:01:59.557Z,90759.06
2023-05-19T07:04:44.331Z,90759.09
2023-05-19T07:07:29.212Z,90760.75
2023-05-19T07:10:14.237Z,90752.47
2023-05-19T07:12:59.715Z,90756.03
2023-05-19T07:15:44.621Z,90764.16
2023-05-19T07:18:29.480Z,90756.56
2023-05-19T07:21:15.352Z,90750.09
2023-05-19T07:24:00.551Z,90757.94
2023-05-19T07:26:45.616Z,90757.88
2023-05-19T07:29:30.653Z,90755.25
2023-05-19T07:32:15.683Z,90748.59
2023-05-19T07:35:00.815Z,90751.69
2023-05-19T07:37:45.694Z,90752.44
2023-05-19T07:40:30.851Z,90750.13
2023-05-19T07:43:15.770Z,90743.44
2023-05-19T07:46:00.823Z,90744.50
2023-05-19T07:48:45.941Z,90738.97
2023-05-19T07:51:30.933Z,90736.22
2023-05-19T07:54:15.807Z,90734.94
2023-05-19T07:57:00.735Z,90738.00
2023-05-19T07:59:45.706Z,90727.28
2023-05-19T08:02:30.655Z,90725.00
2023-05-19T08:05:15.623Z,90725.50
2023-05-19T08:08:00.532Z,90721.50
2023-05-19T08:10:45.570Z,90725.81
2023-05-19T08:13:30.403Z,90716.97
2023-05-19T08:16:15.456Z,90719.28
2023-05-19T08:19:00.360Z,90711.94
2023-05-19T08:21:45.411Z,90705.09
2023-05-19T08:24:30.586Z,90706.19
2023-05-19T08:27:15.430Z,90707.25
2023-05-19T08:30:00.345Z,90713.09
2023-05-19T08:32:45.453Z,90701.56
2023-05-19T08:35:30.647Z,90698.53
2023-05-19T08:38:15.584Z,90700.06
2023-05-19T08:41:00.592Z,90700.53
2023-05-19T08:43:45.624Z,90700.06
2023-05-19T08:46:30.493Z,90691.72
2023-05-19T08:49:17.405Z,90707.13
2023-05-19T08:52:03.037Z,90694.06
2023-05-19T08:54:47.996Z,90690.56
2023-05-19T08:57:33.088Z,90685.59
2023-05-19T09:00:18.014Z,90680.72
2023-05-19T09:03:17.369Z,90674.38
2023-05-19T09:06:08.286Z,90677.31
2023-05-19T09:08:53.061Z,90671.88
2023-05-19T09:11:38.044Z,90668.06
2023-05-19T09:14:23.011Z,90664.88
2023-05-19T09:17:07.678Z,90666.47
2023-05-19T09:19:52.730Z,90665.69
2023-05-19T09:22:37.944Z,90657.16
2023-05-19T09:25:22.958Z,90661.28
2023-05-19T09:28:07.836Z,90658.31
2023-05-19T09:30:52.883Z,90646.78
2023-05-19T09:33:37.954Z,90641.81
2023-05-19T09:36:22.871Z,90640.78
2023-05-19T09:39:07.832Z,90632.13
2023-05-19T09:41:53.010Z,90635.97
2023-05-19T09:44:38.080Z,90634.50
2023-05-19T09:47:23.013Z,90625.69
2023-05-19T09:50:08.105Z,90624.72
2023-05-19T09:52:52.773Z,90619.47
2023-05-19T09:55:37.789Z,90635.00
2023-05-19T09:58:22.791Z,90622.78
2023-05-19T10:01:07.851Z,90619.56
2023-05-19T10:03:52.741Z,90622.00
2023-05-19T10:06:37.716Z,90619.78
2023-05-19T10:09:22.564Z,90610.09
2023-05-19T10:12:07.457Z,90613.72
2023-05-19T10:14:52.424Z,90614.41
2023-05-19T10:17:37.409Z,90610.50
2023-05-19T10:20:23.607Z,90609.84
2023-05-19T10:23:08.390Z,90598.81
2023-05-19T10:25:53.502Z,90604.78
2023-05-19T10:28:38.322Z,90602.81
2023-05-19T10:31:23.343Z,90591.19
2023-05-19T10:34:08.461Z,90592.47
2023-05-19T10:36:53.444Z,90600.78
2023-05-19T10:39:38.588Z,90600.91
2023-05-19T10:42:23.580Z,90587.28
2023-05-19T10:45:08.439Z,90587.16
2023-05-19T10:47:53.339Z,90593.63
2023-05-19T10:50:38.239Z,90588.00
2023-05-19T10:53:23.140Z,90583.00
2023-05-19T10:56:08.104Z,90576.81
2023-05-19T10:58:53.080Z,90580.22
2023-05-19T11:01:38.108Z,90576.03
2023-05-19T11:04:22.993Z,90580.06
2023-05-19T11:07:07.993Z,90581.75
2023-05-19T11:09:53.018Z,90570.56
2023-05-19T11:12:37.906Z,90576.50
2023-05-19T11:15:22.742Z,90576.09
2023-05-19T11:18:08.218Z,90574.53
2023-05-19T11:20:53.211Z,90569.66
2023-05-19T11:23:38.181Z,90564.88
2023-05-19T11:26:23.031Z,90560.09
2023-05-19T11:29:08.045Z,90564.25
2023-05-19T11:31:52.842Z,90555.44
2023-05-19T11:34:37.814Z,90556.75
2023-05-19T11:37:22.657Z,90558.75
2023-05-19T11:40:07.609Z,90566.22
2023-05-19T11:42:52.490Z,90554.81
2023-05-19T11:45:37.574Z,90555.81
2023-05-19T11:48:22.469Z,90558.50
2023-05-19T11:51:07.237Z,90551.38
2023-05-19T11:53:52.180Z,90554.31
2023-05-19T11:56:37.080Z,90546.94
2023-05-19T11:59:22.027Z,90547.84
2023-05-19T12:02:07.000Z,90546.88
2023-05-19T12:04:52.407Z,90547.06
2023-05-19T12:07:37.350Z,90554.13
2023-05-19T12:10:22.324Z,90546.72
2023-05-19T12:13:07.457Z,90542.84
2023-05-19T12:15:52.552Z,90548.84
2023-05-19T12:18:37.769Z,90548.13
2023-05-19T12:21:22.614Z,90554.13
2023-05-19T12:24:07.572Z,90556.63
2023-05-19T12:26:52.618Z,90555.66
2023-05-19T12:29:37.592Z,90554.31
2023-05-19T12:32:22.246Z,90557.66
2023-05-19T12:35:07.142Z,90563.09
2023-05-19T12:37:52.134Z,90557.75
2023-05-19T12:40:37.547Z,90566.75
2023-05-19T12:46:42.344Z,90562.50
2023-05-19T12:59:30.576Z,90566.13
2023-05-19T13:02:25.673Z,90561.72
2023-05-19T13:05:10.494Z,90557.50
2023-05-19T13:07:55.555Z,90558.38
2023-05-19T13:10:43.543Z,90561.56
2023-05-19T13:13:28.783Z,90560.03
2023-05-19T13:16:13.582Z,90559.81
2023-05-19T13:18:59.451Z,90558.34
2023-05-19T13:21:44.229Z,90562.16
2023-05-19T13:24:31.210Z,90559.19
2023-05-19T13:27:21.246Z,90557.09
2023-05-19T13:30:06.366Z,90551.31
2023-05-19T13:32:51.776Z,90552.06
2023-05-19T13:35:37.060Z,90550.78
2023-05-19T13:38:26.408Z,90544.44
2023-05-19T13:41:12.655Z,90537.84
2023-05-19T13:43:59.347Z,90542.50
2023-05-19T13:46:46.099Z,90535.06
2023-05-19T13:49:32.356Z,90539.66
2023-05-19T13:52:17.496Z,90532.09
2023-05-19T13:55:02.585Z,90532.84
2023-05-19T13:57:47.803Z,90535.38
2023-05-19T14:00:33.034Z,90539.28
2023-05-19T14:03:18.353Z,90530.38
2023-05-19T14:06:03.125Z,90537.59
2023-05-19T14:08:48.355Z,90534.94
2023-05-19T14:11:33.338Z,90536.56
2023-05-19T14:14:18.496Z,90534.75
2023-05-19T14:17:03.533Z,90536.97
2023-05-19T14:19:48.435Z,90542.94
2023-05-19T14:22:33.751Z,90546.44
2023-05-19T14:25:18.820Z,90546.75
2023-05-19T14:28:03.883Z,90538.63
2023-05-19T14:30:48.519Z,90544.44
2023-05-19T14:33:35.571Z,90538.34
2023-05-19T14:36:21.013Z,90531.94
2023-05-19T14:39:06.085Z,90533.22
2023-05-19T14:41:51.020Z,90531.72
2023-05-19T14:44:35.904Z,90530.59
2023-05-19T14:47:20.962Z,90532.25
2023-05-19T14:50:05.910Z,90525.81
2023-05-19T14:52:51.024Z,90528.72
2023-05-19T14:55:36.264Z,90522.44
2023-05-19T14:58:28.946Z,90520.56
2023-05-19T15:01:14.504Z,90520.00
2023-05-19T15:03:59.489Z,90515.03
2023-05-19T15:06:45.180Z,90520.63
2023-05-19T15:09:31.475Z,90520.78
2023-05-19T15:12:16.532Z,90514.19
2023-05-19T15:15:01.380Z,90520.97
2023-05-19T15:17:46.310Z,90517.44
2023-05-19T15:20:31.079Z,90514.34
2023-05-19T15:23:16.139Z,90513.19
2023-05-19T15:26:01.029Z,90504.84
2023-05-19T15:28:46.001Z,90508.81
2023-05-19T15:31:31.082Z,90511.97
2023-05-19T15:40:53.168Z,90496.22
2023-05-19T15:43:41.960Z,90489.34
2023-05-19T15:46:27.035Z,90493.59
2023-05-19T15:49:12.968Z,90487.34
2023-05-19T15:51:59.149Z,90490.13
2023-05-19T15:54:44.124Z,90489.34
2023-05-19T15:57:28.860Z,90491.38
2023-05-19T16:00:14.341Z,90505.41
2023-05-19T16:02:59.869Z,90493.78
2023-05-19T16:05:48.622Z,90495.13
2023-05-19T16:08:33.980Z,90487.56
2023-05-19T16:11:18.717Z,90486.06
2023-05-19T16:14:04.052Z,90495.16
2023-05-19T16:16:48.857Z,90484.25
2023-05-19T16:19:34.032Z,90484.84
2023-05-19T16:22:19.209Z,90489.25
2023-05-19T16:25:04.125Z,90477.03
2023-05-19T16:27:49.008Z,90483.47
2023-05-19T16:30:34.101Z,90484.22
2023-05-19T16:33:19.281Z,90488.34
2023-05-19T16:36:04.218Z,90485.00
2023-05-19T16:38:49.180Z,90483.50
2023-05-19T16:41:34.310Z,90478.91
2023-05-19T16:44:19.194Z,90486.81
2023-05-19T16:47:04.269Z,90485.31
2023-05-19T16:49:49.439Z,90489.00
2023-05-19T16:52:34.612Z,90494.38
2023-05-19T16:55:19.617Z,90502.72
2023-05-19T16:58:04.464Z,90491.16
2023-05-19T17:00:49.988Z,90498.88
2023-05-19T17:03:35.186Z,90493.53
2023-05-19T17:06:20.273Z,90497.97
2023-05-19T17:09:05.262Z,90499.28
2023-05-19T17:11:50.082Z,90496.31
2023-05-19T17:14:34.922Z,90507.53
2023-05-19T17:17:19.985Z,90509.06
2023-05-19T17:20:04.928Z,90507.94
2023-05-19T17:22:51.076Z,90504.97
2023-05-19T17:25:36.128Z,90516.00
2023-05-19T17:28:20.987Z,90516.03
2023-05-19T17:31:06.050Z,90524.91
2023-05-19T17:33:51.019Z,90520.28
2023-05-19T17:36:35.981Z,90522.69
2023-05-19T17:39:20.920Z,90527.09
2023-05-19T17:42:05.965Z,90518.75
2023-05-19T17:44:51.123Z,90518.91
2023-05-19T18:03:53.664Z,90542.78
2023-05-19T18:09:59.591Z,90546.84
2023-05-19T18:13:04.943Z,90550.72
2023-05-19T18:16:00.073Z,90551.22
2023-05-19T18:18:50.909Z,90547.91
2023-05-19T18:24:48.973Z,90549.94
2023-05-19T18:27:41.903Z,90544.22
2023-05-19T18:46:42.996Z,90562.53
2023-05-19T18:49:33.981Z,90564.19
2023-05-19T18:55:42.698Z,90572.09
2023-05-19T19:01:48.149Z,90574.91
2023-05-19T19:04:33.074Z,90572.75
2023-05-19T19:07:18.099Z,90570.88
2023-05-19T19:10:02.987Z,90581.50
2023-05-19T19:12:48.008Z,90587.78
2023-05-19T19:15:33.024Z,90594.75
2023-05-19T19:18:17.727Z,90594.44
2023-05-19T19:21:02.901Z,90604.34
2023-05-19T19:23:47.942Z,90611.50
2023-05-19T19:26:32.763Z,90603.06
2023-05-19T19:29:17.861Z,90603.97
2023-05-19T19:32:03.215Z,90606.66
2023-05-19T19:34:48.098Z,90600.38
2023-05-19T19:37:32.974Z,90603.47
2023-05-19T19:40:17.762Z,90603.16
2023-05-19T19:43:02.702Z,90605.53
2023-05-19T19:45:47.437Z,90604.44
2023-05-19T19:48:32.486Z,90600.69
2023-05-19T19:51:17.420Z,90613.22
2023-05-19T19:54:02.532Z,90620.78
2023-05-19T19:56:47.510Z,90624.63
2023-05-19T19:59:32.545Z,90614.88
2023-05-19T20:02:17.701Z,90622.28
2023-05-19T20:05:03.643Z,90627.72
2023-05-19T20:07:48.556Z,90634.13
2023-05-19T20:10:33.776Z,90637.06
2023-05-19T20:13:18.888Z,90632.06
2023-05-19T20:16:03.978Z,90630.41
2023-05-19T20:18:49.105Z,90632.75
2023-05-19T20:21:33.998Z,90634.81
2023-05-19T20:24:18.820Z,90630.41
2023-05-19T20:27:03.871Z,90633.31
2023-05-19T20:29:48.965Z,90631.31
2023-05-19T20:32:33.981Z,90639.66
2023-05-19T20:35:18.917Z,90638.72
2023-05-19T20:38:03.889Z,90642.56
2023-05-19T20:40:48.654Z,90636.28
2023-05-19T20:43:33.789Z,90636.09
2023-05-19T20:46:18.671Z,90646.75
2023-05-19T20:49:03.561Z,90646.41
2023-05-19T20:51:48.598Z,90643.63
2023-05-19T20:54:33.441Z,90649.16
2023-05-19T20:57:18.340Z,90648.25
2023-05-19T21:00:03.159Z,90646.00
2023-05-19T21:02:48.201Z,90655.38
2023-05-19T21:05:33.217Z,90659.94
2023-05-19T21:08:18.492Z,90653.84
2023-05-19T21:11:03.435Z,90654.06
2023-05-19T21:13:48.523Z,90664.88
2023-05-19T21:16:33.780Z,90657.34
2023-05-19T21:19:18.707Z,90660.31
2023-05-19T21:22:03.757Z,90663.00
2023-05-19T21:24:48.732Z,90656.53
2023-05-19T21:27:33.795Z,90657.63
2023-05-19T21:30:18.662Z,90649.72
2023-05-19T21:33:03.663Z,90647.19
2023-05-19T21:35:48.537Z,90642.16
2023-05-19T21:38:33.443Z,90644.56
2023-05-19T21:41:18.371Z,90649.16
2023-05-19T21:44:03.242Z,90643.09
2023-05-19T21:46:48.305Z,90649.00
2023-05-19T21:49:33.113Z,90660.03
2023-05-19T21:52:18.217Z,90648.44
2023-05-19T21:55:03.110Z,90641.28
2023-05-19T21:57:48.213Z,90644.22
2023-05-19T22:00:33.199Z,90651.16
2023-05-19T22:03:18.646Z,90640.88
2023-05-19T22:06:03.451Z,90644.56
2023-05-19T22:08:48.401Z,90641.19
2023-05-19T22:11:33.528Z,90640.47
2023-05-19T22:14:18.386Z,90649.69
2023-05-19T22:17:03.432Z,90648.00
2023-05-19T22:19:48.344Z,90649.28
2023-05-19T22:22:33.236Z,90643.97
2023-05-19T22:25:18.280Z,90650.22
2023-05-19T22:28:03.265Z,90643.00
2023-05-19T22:30:48.213Z,90642.09
2023-05-19T22:33:33.155Z,90640.25
2023-05-19T22:36:18.012Z,90640.75
2023-05-19T22:39:02.856Z,90636.84
2023-05-19T22:41:47.864Z,90640.53
2023-05-19T22:44:32.704Z,90638.50
2023-05-19T22:47:17.502Z,90636.66
2023-05-19T22:50:02.530Z,90649.69
2023-05-19T22:52:47.497Z,90647.69
2023-05-19T22:55:32.892Z,90643.66
2023-05-19T22:58:17.873Z,90648.97
2023-05-19T23:01:03.146Z,90652.38
2023-05-19T23:03:48.371Z,90650.56
2023-05-19T23:06:33.316Z,90654.00
2023-05-19T23:09:18.252Z,90650.84
2023-05-19T23:12:03.108Z,90643.84
2023-05-19T23:14:48.220Z,90637.56
2023-05-19T23:17:33.049Z,90639.41
2023-05-19T23:20:17.991Z,90626.16
2023-05-19T23:23:02.831Z,90626.16
2023-05-19T23:25:48.024Z,90624.78
2023-05-19T23:28:32.941Z,90624.56
2023-05-19T23:31:17.908Z,90615.16
2023-05-19T23:34:02.896Z,90609.22
2023-05-19T23:36:47.850Z,90605.34
2023-05-19T23:39:32.994Z,90603.66
2023-05-19T23:42:18.097Z,90599.88
2023-05-19T23:45:03.067Z,90599.16
2023-05-19T23:47:48.135Z,90604.03
2023-05-19T23:50:32.922Z,90602.47
2023-05-19T23:53:17.851Z,90601.66
2023-05-19T23:56:02.709Z,90599.50
2023-05-19T23:58:47.769Z,90607.19
